MLE weather

Millard Airport
Omaha, Nebraska, United States

Public forecast

Using degrees Fahrenheit for public forecast. Weather courtesy of forecast.io.

Current aviation weather report (METAR) for Millard Airport

Retrieved 2019/10/17 10:35 UTC (0 seconds ago):

KMLE 171035Z AUTO 00000KT 10SM CLR 05/04 A2997 RMK AO2 T00480041

Closest aviation forecast (TAF) to Millard Airport

Closest forecast is Offutt Air Force Base, 10.2 nm (18.8 km) ESE. Retrieved 2019/10/17 10:00 UTC (16 minutes ago):

TAF KOFF 171000Z 1710/1816 VRB06KT 9999 SKC QNH3000INS BECMG 1715/1716 15012KT 9999 SKC QNH2985INS TEMPO 1718/1722 15012G18KT BECMG 1802/1803 15012KT 9999 SCT250 WS015/17040KT QNH2977INS BECMG 1813/1814 17018G30KT 9999 BKN250 WS020/19055KT 530006 QNH2967INS TX21/1720Z TN05/1711Z